createdAt,value
2022-10-19T00:04:45.427Z,11.74
2022-10-19T00:09:48.173Z,11.70
2022-10-19T00:14:51.009Z,11.83
2022-10-19T00:19:55.113Z,11.87
2022-10-19T00:24:58.278Z,11.87
2022-10-19T00:30:01.407Z,11.85
2022-10-19T00:35:06.234Z,11.91
2022-10-19T00:40:10.489Z,11.84
2022-10-19T00:45:17.311Z,11.86
2022-10-19T00:50:21.906Z,11.90
2022-10-19T00:55:25.491Z,11.91
2022-10-19T01:00:28.733Z,11.87
2022-10-19T01:05:34.882Z,11.87
2022-10-19T01:10:48.131Z,11.92
2022-10-19T01:16:00.576Z,11.83
2022-10-19T01:21:26.103Z,11.81
2022-10-19T01:27:06.366Z,11.91
2022-10-19T01:32:15.399Z,11.86
2022-10-19T01:37:28.223Z,12.06
2022-10-19T01:42:38.548Z,12.05
2022-10-19T01:47:48.427Z,12.01
2022-10-19T01:52:52.755Z,11.93
2022-10-19T01:58:01.419Z,12.02
2022-10-19T02:03:07.970Z,11.96
2022-10-19T02:08:16.637Z,11.87
2022-10-19T02:13:20.939Z,11.88
2022-10-19T02:18:29.204Z,11.93
2022-10-19T02:23:31.998Z,12.00
2022-10-19T02:28:35.666Z,11.94
2022-10-19T02:33:40.189Z,11.97
2022-10-19T02:38:43.417Z,12.00
2022-10-19T02:43:50.504Z,12.03
2022-10-19T02:48:56.183Z,12.00
2022-10-19T02:54:01.281Z,12.06
2022-10-19T02:59:07.007Z,12.04
2022-10-19T03:04:11.164Z,12.08
2022-10-19T03:09:13.942Z,12.04
2022-10-19T03:14:16.708Z,12.02
2022-10-19T03:19:20.817Z,11.96
2022-10-19T03:24:23.682Z,12.04
2022-10-19T03:29:26.685Z,11.94
2022-10-19T03:34:30.991Z,11.96
2022-10-19T03:39:33.756Z,11.93
2022-10-19T03:44:36.524Z,11.89
2022-10-19T03:49:40.709Z,11.79
2022-10-19T03:54:43.593Z,11.83
2022-10-19T03:59:46.332Z,11.74
2022-10-19T04:04:50.506Z,11.81
2022-10-19T04:09:53.290Z,11.78
2022-10-19T04:14:57.663Z,11.69
2022-10-19T04:20:02.156Z,11.80
2022-10-19T04:25:05.924Z,11.89
2022-10-19T04:30:09.517Z,11.79
2022-10-19T04:35:13.873Z,11.98
2022-10-19T04:40:16.655Z,11.74
2022-10-19T04:45:19.479Z,11.83
2022-10-19T04:50:23.753Z,11.78
2022-10-19T04:55:31.718Z,11.77
2022-10-19T05:00:34.666Z,11.67
2022-10-19T05:05:38.927Z,11.67
2022-10-19T05:10:45.442Z,11.79
2022-10-19T05:15:57.037Z,11.77
2022-10-19T05:21:05.781Z,11.84
2022-10-19T05:26:11.355Z,11.82
2022-10-19T05:31:16.914Z,11.74
2022-10-19T05:36:26.028Z,11.83
2022-10-19T05:41:28.901Z,11.95
2022-10-19T05:46:33.243Z,12.11
2022-10-19T05:51:37.346Z,12.00
2022-10-19T05:56:41.814Z,12.11
2022-10-19T06:01:45.082Z,12.00
2022-10-19T06:06:49.234Z,12.17
2022-10-19T06:11:52.032Z,12.17
2022-10-19T06:16:54.822Z,12.17
2022-10-19T06:21:58.968Z,12.29
2022-10-19T06:27:01.716Z,12.22
2022-10-19T06:32:04.697Z,12.33
2022-10-19T06:37:08.804Z,12.34
2022-10-19T06:42:11.724Z,12.20
2022-10-19T06:47:14.770Z,12.51
2022-10-19T06:52:19.215Z,12.67
2022-10-19T06:57:21.961Z,12.87
2022-10-19T07:02:24.852Z,13.16
2022-10-19T07:07:29.021Z,12.96
2022-10-19T07:12:32.191Z,13.34
2022-10-19T07:17:35.139Z,13.56
2022-10-19T07:22:39.533Z,13.63
2022-10-19T07:27:42.490Z,13.36
2022-10-19T07:32:47.128Z,13.05
2022-10-19T07:37:51.365Z,13.07
2022-10-19T07:42:55.038Z,13.08
2022-10-19T07:47:57.893Z,13.03
2022-10-19T07:53:03.452Z,13.21
2022-10-19T07:58:06.163Z,13.01
2022-10-19T08:03:57.104Z,13.24
2022-10-19T08:08:34.148Z,13.22
2022-10-19T08:13:37.009Z,13.31
2022-10-19T08:18:39.711Z,13.22
2022-10-19T08:23:43.880Z,13.54
2022-10-19T08:28:46.973Z,13.44
2022-10-19T08:33:50.942Z,13.35
2022-10-19T08:38:55.110Z,13.59
2022-10-19T08:44:11.277Z,13.75
2022-10-19T08:49:19.941Z,13.50
2022-10-19T08:54:25.266Z,13.48
2022-10-19T08:59:37.703Z,13.19
2022-10-19T09:04:43.747Z,13.25
2022-10-19T09:09:52.139Z,13.67
2022-10-19T09:14:57.339Z,14.02
2022-10-19T09:20:14.239Z,14.29
2022-10-19T09:25:21.517Z,14.41
2022-10-19T09:30:25.270Z,14.70
2022-10-19T09:35:35.178Z,14.83
2022-10-19T09:40:39.423Z,14.81
2022-10-19T09:45:49.771Z,15.09
2022-10-19T09:50:56.718Z,15.28
2022-10-19T09:56:04.658Z,15.03
2022-10-19T10:01:07.459Z,14.74
2022-10-19T10:06:15.349Z,14.54
2022-10-19T10:11:28.281Z,14.68
2022-10-19T10:16:33.691Z,15.23
2022-10-19T10:21:48.173Z,15.35
2022-10-19T10:26:54.966Z,14.92
2022-10-19T10:32:07.310Z,14.49
2022-10-19T10:37:24.406Z,14.05
2022-10-19T10:42:32.177Z,13.98
2022-10-19T10:47:39.830Z,14.05
2022-10-19T10:52:57.995Z,14.32
2022-10-19T10:58:16.162Z,14.49
2022-10-19T11:03:25.672Z,14.58
2022-10-19T11:08:33.158Z,14.71
2022-10-19T11:13:44.823Z,15.07
2022-10-19T11:18:51.906Z,14.64
2022-10-19T11:24:08.984Z,14.43
2022-10-19T11:29:28.852Z,14.36
2022-10-19T11:34:53.166Z,14.57
2022-10-19T11:40:11.132Z,14.19
2022-10-19T11:45:25.142Z,14.42
2022-10-19T11:50:37.472Z,14.31
2022-10-19T11:55:47.930Z,14.25
2022-10-19T12:01:00.098Z,14.09
2022-10-19T12:06:12.755Z,13.94
2022-10-19T12:11:32.246Z,14.06
2022-10-19T12:16:41.984Z,14.08
2022-10-19T12:21:46.736Z,14.06
2022-10-19T12:26:51.645Z,14.17
2022-10-19T12:31:58.429Z,14.14
2022-10-19T12:37:08.342Z,14.22
2022-10-19T12:42:21.157Z,14.18
2022-10-19T12:47:26.767Z,14.06
2022-10-19T12:52:43.106Z,13.90
2022-10-19T12:57:50.295Z,13.96
2022-10-19T13:03:01.885Z,13.73
2022-10-19T13:08:10.611Z,13.72
2022-10-19T13:13:57.696Z,13.98
2022-10-19T13:19:18.221Z,14.11
2022-10-19T13:24:29.145Z,14.39
2022-10-19T13:29:42.868Z,14.37
2022-10-19T13:34:47.948Z,14.11
2022-10-19T13:39:51.142Z,14.04
2022-10-19T13:44:54.470Z,13.97
2022-10-19T13:50:35.878Z,13.97
2022-10-19T13:55:55.450Z,13.82
2022-10-19T14:01:23.779Z,13.87
2022-10-19T14:06:34.539Z,13.92
2022-10-19T14:11:40.039Z,14.03
2022-10-19T14:16:48.575Z,14.11
2022-10-19T14:21:52.665Z,13.93
2022-10-19T14:26:55.793Z,13.95
2022-10-19T14:31:59.982Z,13.83
2022-10-19T14:37:04.266Z,13.75
2022-10-19T14:42:11.340Z,13.74
2022-10-19T14:47:22.737Z,13.61
2022-10-19T14:52:32.675Z,13.53
2022-10-19T14:57:40.039Z,13.44
2022-10-19T15:02:46.387Z,13.39
2022-10-19T15:07:51.316Z,13.34
2022-10-19T15:13:02.373Z,13.33
2022-10-19T15:18:07.054Z,13.26
2022-10-19T15:23:33.305Z,13.25
2022-10-19T15:28:41.441Z,13.21
2022-10-19T15:33:47.767Z,13.20
2022-10-19T15:39:17.620Z,12.94
2022-10-19T15:44:34.618Z,12.70
2022-10-19T15:49:58.277Z,12.74
2022-10-19T15:55:02.941Z,12.75
2022-10-19T16:00:13.865Z,12.72
2022-10-19T16:05:16.820Z,12.63
2022-10-19T16:10:23.002Z,12.47
2022-10-19T16:15:26.605Z,12.40
2022-10-19T16:20:30.976Z,12.34
2022-10-19T16:25:35.324Z,12.26
2022-10-19T16:30:38.240Z,12.20
2022-10-19T16:35:41.167Z,12.14
2022-10-19T16:40:45.469Z,12.01
2022-10-19T16:45:48.405Z,11.83
2022-10-19T16:51:34.054Z,11.89
2022-10-19T16:56:44.545Z,11.72
2022-10-19T17:01:48.090Z,11.42
2022-10-19T17:06:53.468Z,11.34
2022-10-19T17:11:58.117Z,11.25
2022-10-19T17:17:00.950Z,11.47
2022-10-19T17:22:05.203Z,11.34
2022-10-19T17:27:09.619Z,11.31
2022-10-19T17:32:15.037Z,11.22
2022-10-19T17:37:17.982Z,11.07
2022-10-19T17:42:23.867Z,11.14
2022-10-19T17:47:30.486Z,11.07
2022-10-19T17:52:33.890Z,10.99
2022-10-19T17:57:38.180Z,10.91
2022-10-19T18:02:45.641Z,10.79
2022-10-19T18:07:51.487Z,10.76
2022-10-19T18:12:56.258Z,10.65
2022-10-19T18:18:05.524Z,10.52
2022-10-19T18:23:08.463Z,10.52
2022-10-19T18:28:13.281Z,10.48
2022-10-19T18:33:23.645Z,10.38
2022-10-19T18:38:29.607Z,10.35
2022-10-19T18:43:39.804Z,10.23
2022-10-19T18:48:42.880Z,10.24
2022-10-19T18:53:53.000Z,10.22
2022-10-19T18:58:58.039Z,10.12
2022-10-19T19:04:08.252Z,10.06
2022-10-19T19:09:14.903Z,10.07
2022-10-19T19:14:22.088Z,9.97
2022-10-19T19:19:27.664Z,9.88
2022-10-19T19:24:56.837Z,9.84
2022-10-19T19:30:04.119Z,9.85
2022-10-19T19:35:50.536Z,9.76
2022-10-19T19:40:58.668Z,9.71
2022-10-19T19:46:08.135Z,9.66
2022-10-19T19:51:14.912Z,9.69
2022-10-19T19:56:18.635Z,9.61
2022-10-19T20:01:32.449Z,9.68
2022-10-19T20:06:37.015Z,9.58
2022-10-19T20:11:42.688Z,9.51
2022-10-19T20:16:47.318Z,9.50
2022-10-19T20:21:50.581Z,9.36
2022-10-19T20:26:54.543Z,9.41
2022-10-19T20:31:58.821Z,9.43
2022-10-19T20:37:01.904Z,9.44
2022-10-19T20:42:05.139Z,9.41
2022-10-19T20:47:09.292Z,9.32
2022-10-19T20:52:12.330Z,9.26
2022-10-19T20:57:15.566Z,9.25
2022-10-19T21:02:19.809Z,9.19
2022-10-19T21:07:22.608Z,9.17
2022-10-19T21:12:25.424Z,9.09
2022-10-19T21:22:38.622Z,9.02
2022-10-19T21:27:41.734Z,8.96
2022-10-19T21:32:48.457Z,8.92
2022-10-19T21:37:51.229Z,8.94
2022-10-19T21:42:54.041Z,8.88
2022-10-19T21:47:58.141Z,8.90
2022-10-19T21:53:00.981Z,8.78
2022-10-19T21:58:04.673Z,8.70
2022-10-19T22:03:09.294Z,8.66
2022-10-19T22:08:12.083Z,8.62
2022-10-19T22:13:14.850Z,8.47
2022-10-19T22:18:18.984Z,8.41
2022-10-19T22:23:21.731Z,8.35
2022-10-19T22:28:24.501Z,8.48
2022-10-19T22:33:28.645Z,8.39
2022-10-19T22:38:31.388Z,8.44
2022-10-19T22:43:34.258Z,8.51
2022-10-19T22:48:38.390Z,8.47
2022-10-19T22:53:41.406Z,8.34
2022-10-19T22:58:44.200Z,8.31
2022-10-19T23:03:48.331Z,8.29
2022-10-19T23:08:51.162Z,8.25
2022-10-19T23:13:53.972Z,8.27
2022-10-19T23:18:58.118Z,8.22
2022-10-19T23:24:01.200Z,8.08
2022-10-19T23:29:04.241Z,8.09
2022-10-19T23:34:08.348Z,8.14
2022-10-19T23:39:11.100Z,8.06
2022-10-19T23:44:13.994Z,8.03
2022-10-19T23:49:18.135Z,7.99
2022-10-19T23:54:20.919Z,7.97
2022-10-19T23:59:23.956Z,7.99
